sensor_id;sensor_type;location;lat;lon;timestamp;P1;durP1;ratioP1;P2;durP2;ratioP2
21420;SDS011;10871;50.144;8.428;2023-11-21T00:02:21;8.98;;;5.07;;
21420;SDS011;10871;50.144;8.428;2023-11-21T00:04:48;15.85;;;6.35;;
21420;SDS011;10871;50.144;8.428;2023-11-21T00:07:15;16.10;;;7.55;;
21420;SDS011;10871;50.144;8.428;2023-11-21T00:09:42;14.45;;;8.13;;
21420;SDS011;10871;50.144;8.428;2023-11-21T00:12:08;15.27;;;8.27;;
21420;SDS011;10871;50.144;8.428;2023-11-21T00:14:38;13.68;;;8.32;;
21420;SDS011;10871;50.144;8.428;2023-11-21T00:17:07;14.20;;;8.70;;
21420;SDS011;10871;50.144;8.428;2023-11-21T00:19:34;14.73;;;8.70;;
21420;SDS011;10871;50.144;8.428;2023-11-21T00:22:01;14.38;;;7.95;;
21420;SDS011;10871;50.144;8.428;2023-11-21T00:24:27;13.30;;;6.57;;
21420;SDS011;10871;50.144;8.428;2023-11-21T00:26:54;10.25;;;6.30;;
21420;SDS011;10871;50.144;8.428;2023-11-21T00:29:21;16.80;;;7.32;;
21420;SDS011;10871;50.144;8.428;2023-11-21T00:31:47;12.30;;;7.18;;
21420;SDS011;10871;50.144;8.428;2023-11-21T00:34:14;11.75;;;7.18;;
21420;SDS011;10871;50.144;8.428;2023-11-21T00:36:41;16.10;;;7.68;;
21420;SDS011;10871;50.144;8.428;2023-11-21T00:39:08;15.80;;;7.13;;
21420;SDS011;10871;50.144;8.428;2023-11-21T00:41:35;12.82;;;7.32;;
21420;SDS011;10871;50.144;8.428;2023-11-21T00:44:03;13.02;;;7.50;;
21420;SDS011;10871;50.144;8.428;2023-11-21T00:46:29;13.18;;;6.55;;
21420;SDS011;10871;50.144;8.428;2023-11-21T00:48:56;14.90;;;6.55;;
21420;SDS011;10871;50.144;8.428;2023-11-21T00:51:22;11.93;;;6.65;;
21420;SDS011;10871;50.144;8.428;2023-11-21T00:53:49;12.90;;;7.22;;
21420;SDS011;10871;50.144;8.428;2023-11-21T00:56:16;12.18;;;7.38;;
21420;SDS011;10871;50.144;8.428;2023-11-21T00:58:43;11.73;;;7.40;;
21420;SDS011;10871;50.144;8.428;2023-11-21T01:01:13;11.73;;;7.05;;
21420;SDS011;10871;50.144;8.428;2023-11-21T01:03:39;11.68;;;7.20;;
21420;SDS011;10871;50.144;8.428;2023-11-21T01:06:06;10.00;;;6.32;;
21420;SDS011;10871;50.144;8.428;2023-11-21T01:08:33;9.32;;;5.88;;
21420;SDS011;10871;50.144;8.428;2023-11-21T01:11:00;10.15;;;6.00;;
21420;SDS011;10871;50.144;8.428;2023-11-21T01:13:27;11.27;;;6.82;;
21420;SDS011;10871;50.144;8.428;2023-11-21T01:15:57;8.45;;;5.95;;
21420;SDS011;10871;50.144;8.428;2023-11-21T01:18:23;9.93;;;6.60;;
21420;SDS011;10871;50.144;8.428;2023-11-21T01:20:52;10.57;;;6.72;;
21420;SDS011;10871;50.144;8.428;2023-11-21T01:23:20;10.63;;;5.82;;
21420;SDS011;10871;50.144;8.428;2023-11-21T01:25:48;8.63;;;5.03;;
21420;SDS011;10871;50.144;8.428;2023-11-21T01:28:15;8.55;;;5.47;;
21420;SDS011;10871;50.144;8.428;2023-11-21T01:30:42;8.95;;;4.90;;
21420;SDS011;10871;50.144;8.428;2023-11-21T01:33:08;8.23;;;4.50;;
21420;SDS011;10871;50.144;8.428;2023-11-21T01:35:36;10.48;;;4.97;;
21420;SDS011;10871;50.144;8.428;2023-11-21T01:38:02;7.43;;;4.88;;
21420;SDS011;10871;50.144;8.428;2023-11-21T01:40:30;8.95;;;4.75;;
21420;SDS011;10871;50.144;8.428;2023-11-21T01:42:57;7.65;;;4.32;;
21420;SDS011;10871;50.144;8.428;2023-11-21T01:45:24;6.25;;;4.47;;
21420;SDS011;10871;50.144;8.428;2023-11-21T01:47:51;5.97;;;4.25;;
21420;SDS011;10871;50.144;8.428;2023-11-21T01:50:21;5.63;;;4.25;;
21420;SDS011;10871;50.144;8.428;2023-11-21T01:52:49;9.07;;;4.78;;
21420;SDS011;10871;50.144;8.428;2023-11-21T01:55:15;8.73;;;4.72;;
21420;SDS011;10871;50.144;8.428;2023-11-21T01:57:54;8.45;;;5.05;;
21420;SDS011;10871;50.144;8.428;2023-11-21T02:00:21;7.30;;;4.68;;
21420;SDS011;10871;50.144;8.428;2023-11-21T02:02:48;8.63;;;5.18;;
21420;SDS011;10871;50.144;8.428;2023-11-21T02:05:15;9.45;;;5.78;;
21420;SDS011;10871;50.144;8.428;2023-11-21T02:07:43;7.95;;;5.82;;
21420;SDS011;10871;50.144;8.428;2023-11-21T02:10:12;6.72;;;5.10;;
21420;SDS011;10871;50.144;8.428;2023-11-21T02:12:41;8.25;;;5.32;;
21420;SDS011;10871;50.144;8.428;2023-11-21T02:15:09;10.02;;;5.40;;
21420;SDS011;10871;50.144;8.428;2023-11-21T02:17:41;8.53;;;4.97;;
21420;SDS011;10871;50.144;8.428;2023-11-21T02:20:13;8.35;;;4.65;;
21420;SDS011;10871;50.144;8.428;2023-11-21T02:22:49;7.78;;;4.90;;
21420;SDS011;10871;50.144;8.428;2023-11-21T02:25:15;6.13;;;4.30;;
21420;SDS011;10871;50.144;8.428;2023-11-21T02:27:42;7.80;;;4.50;;
21420;SDS011;10871;50.144;8.428;2023-11-21T02:30:09;6.22;;;4.35;;
21420;SDS011;10871;50.144;8.428;2023-11-21T02:32:39;9.63;;;4.40;;
21420;SDS011;10871;50.144;8.428;2023-11-21T02:35:14;5.95;;;3.88;;
21420;SDS011;10871;50.144;8.428;2023-11-21T02:37:42;4.78;;;3.05;;
21420;SDS011;10871;50.144;8.428;2023-11-21T02:40:09;4.97;;;3.30;;
21420;SDS011;10871;50.144;8.428;2023-11-21T02:42:38;6.55;;;3.17;;
21420;SDS011;10871;50.144;8.428;2023-11-21T02:45:06;5.00;;;2.70;;
21420;SDS011;10871;50.144;8.428;2023-11-21T02:47:33;4.75;;;2.65;;
21420;SDS011;10871;50.144;8.428;2023-11-21T02:50:00;4.18;;;2.78;;
21420;SDS011;10871;50.144;8.428;2023-11-21T02:52:27;6.63;;;2.83;;
21420;SDS011;10871;50.144;8.428;2023-11-21T02:54:53;6.57;;;3.55;;
21420;SDS011;10871;50.144;8.428;2023-11-21T02:57:21;4.93;;;3.67;;
21420;SDS011;10871;50.144;8.428;2023-11-21T02:59:48;5.55;;;3.50;;
21420;SDS011;10871;50.144;8.428;2023-11-21T03:02:16;6.40;;;3.38;;
21420;SDS011;10871;50.144;8.428;2023-11-21T03:04:43;3.85;;;3.33;;
21420;SDS011;10871;50.144;8.428;2023-11-21T03:07:09;6.25;;;3.75;;
21420;SDS011;10871;50.144;8.428;2023-11-21T03:09:36;4.63;;;4.10;;
21420;SDS011;10871;50.144;8.428;2023-11-21T03:12:03;8.32;;;4.05;;
21420;SDS011;10871;50.144;8.428;2023-11-21T03:14:30;5.70;;;4.13;;
21420;SDS011;10871;50.144;8.428;2023-11-21T03:16:58;5.80;;;3.88;;
21420;SDS011;10871;50.144;8.428;2023-11-21T03:19:25;6.05;;;4.10;;
21420;SDS011;10871;50.144;8.428;2023-11-21T03:21:52;5.53;;;4.05;;
21420;SDS011;10871;50.144;8.428;2023-11-21T03:24:19;5.57;;;3.83;;
21420;SDS011;10871;50.144;8.428;2023-11-21T03:26:46;6.72;;;4.25;;
21420;SDS011;10871;50.144;8.428;2023-11-21T03:29:13;6.18;;;4.35;;
21420;SDS011;10871;50.144;8.428;2023-11-21T03:31:40;6.20;;;4.38;;
21420;SDS011;10871;50.144;8.428;2023-11-21T03:34:06;7.22;;;4.57;;
21420;SDS011;10871;50.144;8.428;2023-11-21T03:36:33;9.98;;;4.57;;
21420;SDS011;10871;50.144;8.428;2023-11-21T03:38:59;12.35;;;5.35;;
21420;SDS011;10871;50.144;8.428;2023-11-21T03:41:26;8.18;;;5.28;;
21420;SDS011;10871;50.144;8.428;2023-11-21T03:43:53;6.60;;;4.85;;
21420;SDS011;10871;50.144;8.428;2023-11-21T03:46:19;9.13;;;5.30;;
21420;SDS011;10871;50.144;8.428;2023-11-21T03:48:46;6.18;;;4.97;;
21420;SDS011;10871;50.144;8.428;2023-11-21T03:51:14;6.97;;;4.90;;
21420;SDS011;10871;50.144;8.428;2023-11-21T03:53:41;8.15;;;5.45;;
21420;SDS011;10871;50.144;8.428;2023-11-21T03:56:09;6.95;;;5.50;;
21420;SDS011;10871;50.144;8.428;2023-11-21T03:58:35;9.68;;;5.50;;
21420;SDS011;10871;50.144;8.428;2023-11-21T04:01:02;6.32;;;4.78;;
21420;SDS011;10871;50.144;8.428;2023-11-21T04:03:29;6.68;;;5.00;;
21420;SDS011;10871;50.144;8.428;2023-11-21T04:05:56;5.93;;;4.80;;
21420;SDS011;10871;50.144;8.428;2023-11-21T04:08:23;7.38;;;4.82;;
21420;SDS011;10871;50.144;8.428;2023-11-21T04:10:50;7.55;;;4.95;;
21420;SDS011;10871;50.144;8.428;2023-11-21T04:13:16;9.43;;;4.70;;
21420;SDS011;10871;50.144;8.428;2023-11-21T04:15:44;7.13;;;4.22;;
21420;SDS011;10871;50.144;8.428;2023-11-21T04:18:10;5.60;;;4.22;;
21420;SDS011;10871;50.144;8.428;2023-11-21T04:20:37;7.47;;;4.45;;
21420;SDS011;10871;50.144;8.428;2023-11-21T04:23:04;11.18;;;4.30;;
21420;SDS011;10871;50.144;8.428;2023-11-21T04:25:30;9.82;;;5.00;;
21420;SDS011;10871;50.144;8.428;2023-11-21T04:27:58;7.30;;;4.15;;
21420;SDS011;10871;50.144;8.428;2023-11-21T04:30:25;4.85;;;3.17;;
21420;SDS011;10871;50.144;8.428;2023-11-21T04:32:51;4.68;;;3.45;;
21420;SDS011;10871;50.144;8.428;2023-11-21T04:35:18;5.65;;;3.28;;
21420;SDS011;10871;50.144;8.428;2023-11-21T04:37:45;3.50;;;3.13;;
21420;SDS011;10871;50.144;8.428;2023-11-21T04:40:12;5.65;;;3.42;;
21420;SDS011;10871;50.144;8.428;2023-11-21T04:42:38;4.78;;;3.20;;
21420;SDS011;10871;50.144;8.428;2023-11-21T04:45:05;4.00;;;2.28;;
21420;SDS011;10871;50.144;8.428;2023-11-21T04:47:35;5.43;;;2.72;;
21420;SDS011;10871;50.144;8.428;2023-11-21T04:50:02;7.20;;;3.00;;
21420;SDS011;10871;50.144;8.428;2023-11-21T04:52:29;5.30;;;2.83;;
21420;SDS011;10871;50.144;8.428;2023-11-21T04:54:56;2.10;;;1.73;;
21420;SDS011;10871;50.144;8.428;2023-11-21T04:57:24;3.47;;;1.80;;
21420;SDS011;10871;50.144;8.428;2023-11-21T04:59:51;5.75;;;2.13;;
21420;SDS011;10871;50.144;8.428;2023-11-21T05:02:17;5.55;;;2.50;;
21420;SDS011;10871;50.144;8.428;2023-11-21T05:05:01;3.65;;;2.47;;
21420;SDS011;10871;50.144;8.428;2023-11-21T05:07:27;3.88;;;1.85;;
21420;SDS011;10871;50.144;8.428;2023-11-21T05:09:58;2.95;;;2.08;;
21420;SDS011;10871;50.144;8.428;2023-11-21T05:12:24;3.20;;;2.00;;
21420;SDS011;10871;50.144;8.428;2023-11-21T05:14:51;4.15;;;2.30;;
21420;SDS011;10871;50.144;8.428;2023-11-21T05:17:17;5.10;;;2.30;;
21420;SDS011;10871;50.144;8.428;2023-11-21T05:19:44;3.70;;;2.25;;
21420;SDS011;10871;50.144;8.428;2023-11-21T05:22:15;6.95;;;2.33;;
21420;SDS011;10871;50.144;8.428;2023-11-21T05:24:41;5.85;;;2.03;;
21420;SDS011;10871;50.144;8.428;2023-11-21T05:27:08;2.38;;;2.08;;
21420;SDS011;10871;50.144;8.428;2023-11-21T05:29:36;3.33;;;2.38;;
21420;SDS011;10871;50.144;8.428;2023-11-21T05:32:04;6.45;;;2.20;;
21420;SDS011;10871;50.144;8.428;2023-11-21T05:34:31;4.22;;;2.92;;
21420;SDS011;10871;50.144;8.428;2023-11-21T05:36:57;4.25;;;3.10;;
21420;SDS011;10871;50.144;8.428;2023-11-21T05:39:25;6.60;;;3.47;;
21420;SDS011;10871;50.144;8.428;2023-11-21T05:41:51;6.07;;;4.18;;
21420;SDS011;10871;50.144;8.428;2023-11-21T05:44:18;7.00;;;4.30;;
21420;SDS011;10871;50.144;8.428;2023-11-21T05:46:44;6.65;;;3.97;;
21420;SDS011;10871;50.144;8.428;2023-11-21T05:49:11;6.68;;;4.40;;
21420;SDS011;10871;50.144;8.428;2023-11-21T05:51:38;7.40;;;5.15;;
21420;SDS011;10871;50.144;8.428;2023-11-21T05:54:05;7.20;;;5.20;;
21420;SDS011;10871;50.144;8.428;2023-11-21T05:56:32;7.53;;;4.72;;
21420;SDS011;10871;50.144;8.428;2023-11-21T05:58:58;5.63;;;3.70;;
21420;SDS011;10871;50.144;8.428;2023-11-21T06:01:26;6.97;;;3.85;;
21420;SDS011;10871;50.144;8.428;2023-11-21T06:03:54;4.85;;;3.58;;
21420;SDS011;10871;50.144;8.428;2023-11-21T06:06:21;5.88;;;3.65;;
21420;SDS011;10871;50.144;8.428;2023-11-21T06:08:52;4.57;;;3.42;;
21420;SDS011;10871;50.144;8.428;2023-11-21T06:11:19;4.57;;;3.70;;
21420;SDS011;10871;50.144;8.428;2023-11-21T06:13:45;8.93;;;4.57;;
21420;SDS011;10871;50.144;8.428;2023-11-21T06:16:11;7.68;;;4.20;;
21420;SDS011;10871;50.144;8.428;2023-11-21T06:18:42;9.75;;;4.47;;
21420;SDS011;10871;50.144;8.428;2023-11-21T06:21:09;10.00;;;4.97;;
21420;SDS011;10871;50.144;8.428;2023-11-21T06:23:37;8.02;;;4.70;;
21420;SDS011;10871;50.144;8.428;2023-11-21T06:26:04;7.15;;;3.85;;
21420;SDS011;10871;50.144;8.428;2023-11-21T06:28:31;6.15;;;4.40;;
21420;SDS011;10871;50.144;8.428;2023-11-21T06:30:58;4.78;;;3.50;;
21420;SDS011;10871;50.144;8.428;2023-11-21T06:33:25;7.68;;;3.25;;
21420;SDS011;10871;50.144;8.428;2023-11-21T06:35:53;6.35;;;3.50;;
21420;SDS011;10871;50.144;8.428;2023-11-21T06:38:21;6.07;;;3.30;;
21420;SDS011;10871;50.144;8.428;2023-11-21T06:40:48;5.45;;;3.30;;
21420;SDS011;10871;50.144;8.428;2023-11-21T06:43:14;5.00;;;3.30;;
21420;SDS011;10871;50.144;8.428;2023-11-21T06:45:41;4.38;;;3.38;;
21420;SDS011;10871;50.144;8.428;2023-11-21T06:48:08;6.65;;;3.92;;
21420;SDS011;10871;50.144;8.428;2023-11-21T06:50:35;7.25;;;4.03;;
21420;SDS011;10871;50.144;8.428;2023-11-21T06:53:02;5.57;;;4.30;;
21420;SDS011;10871;50.144;8.428;2023-11-21T06:55:30;6.75;;;4.43;;
21420;SDS011;10871;50.144;8.428;2023-11-21T06:57:57;6.18;;;4.85;;
21420;SDS011;10871;50.144;8.428;2023-11-21T07:00:24;7.22;;;5.10;;
21420;SDS011;10871;50.144;8.428;2023-11-21T07:02:51;7.43;;;4.63;;
21420;SDS011;10871;50.144;8.428;2023-11-21T07:05:18;9.90;;;4.22;;
21420;SDS011;10871;50.144;8.428;2023-11-21T07:07:48;8.13;;;4.00;;
21420;SDS011;10871;50.144;8.428;2023-11-21T07:10:15;6.88;;;3.50;;
21420;SDS011;10871;50.144;8.428;2023-11-21T07:12:41;4.57;;;3.13;;
21420;SDS011;10871;50.144;8.428;2023-11-21T07:15:08;4.90;;;2.63;;
21420;SDS011;10871;50.144;8.428;2023-11-21T07:17:38;3.15;;;2.15;;
21420;SDS011;10871;50.144;8.428;2023-11-21T07:20:07;3.30;;;2.45;;
21420;SDS011;10871;50.144;8.428;2023-11-21T07:22:34;2.72;;;2.25;;
21420;SDS011;10871;50.144;8.428;2023-11-21T07:25:00;2.58;;;2.00;;
21420;SDS011;10871;50.144;8.428;2023-11-21T07:27:27;3.03;;;2.10;;
21420;SDS011;10871;50.144;8.428;2023-11-21T07:29:54;3.20;;;2.03;;
21420;SDS011;10871;50.144;8.428;2023-11-21T07:32:20;4.63;;;1.92;;
21420;SDS011;10871;50.144;8.428;2023-11-21T07:34:47;2.78;;;1.90;;
21420;SDS011;10871;50.144;8.428;2023-11-21T07:37:14;6.10;;;1.88;;
21420;SDS011;10871;50.144;8.428;2023-11-21T07:39:40;3.58;;;2.00;;
21420;SDS011;10871;50.144;8.428;2023-11-21T07:42:09;6.07;;;2.10;;
21420;SDS011;10871;50.144;8.428;2023-11-21T07:44:36;3.45;;;1.75;;
21420;SDS011;10871;50.144;8.428;2023-11-21T07:47:02;3.97;;;2.47;;
21420;SDS011;10871;50.144;8.428;2023-11-21T07:49:31;4.80;;;2.60;;
21420;SDS011;10871;50.144;8.428;2023-11-21T07:51:58;4.95;;;2.70;;
21420;SDS011;10871;50.144;8.428;2023-11-21T07:54:24;6.72;;;3.28;;
21420;SDS011;10871;50.144;8.428;2023-11-21T07:56:51;8.48;;;3.10;;
21420;SDS011;10871;50.144;8.428;2023-11-21T07:59:17;7.13;;;3.15;;
21420;SDS011;10871;50.144;8.428;2023-11-21T08:01:44;6.15;;;2.88;;
21420;SDS011;10871;50.144;8.428;2023-11-21T08:04:12;2.65;;;2.40;;
21420;SDS011;10871;50.144;8.428;2023-11-21T08:06:39;3.13;;;2.70;;
21420;SDS011;10871;50.144;8.428;2023-11-21T08:09:07;6.85;;;2.83;;
21420;SDS011;10871;50.144;8.428;2023-11-21T08:11:34;3.15;;;2.85;;
21420;SDS011;10871;50.144;8.428;2023-11-21T08:14:01;5.80;;;3.35;;
21420;SDS011;10871;50.144;8.428;2023-11-21T08:16:27;3.97;;;2.97;;
21420;SDS011;10871;50.144;8.428;2023-11-21T08:18:54;5.63;;;3.35;;
21420;SDS011;10871;50.144;8.428;2023-11-21T08:21:21;5.53;;;3.50;;
21420;SDS011;10871;50.144;8.428;2023-11-21T08:23:50;5.20;;;3.45;;
21420;SDS011;10871;50.144;8.428;2023-11-21T08:26:21;6.63;;;3.40;;
21420;SDS011;10871;50.144;8.428;2023-11-21T08:28:48;6.38;;;3.45;;
21420;SDS011;10871;50.144;8.428;2023-11-21T08:31:14;5.72;;;3.28;;
21420;SDS011;10871;50.144;8.428;2023-11-21T08:33:43;5.47;;;3.08;;
21420;SDS011;10871;50.144;8.428;2023-11-21T08:36:09;5.05;;;3.47;;
21420;SDS011;10871;50.144;8.428;2023-11-21T08:38:38;6.68;;;4.22;;
21420;SDS011;10871;50.144;8.428;2023-11-21T08:41:05;4.88;;;3.03;;
21420;SDS011;10871;50.144;8.428;2023-11-21T08:43:37;6.68;;;2.55;;
21420;SDS011;10871;50.144;8.428;2023-11-21T08:46:06;5.55;;;2.70;;
21420;SDS011;10871;50.144;8.428;2023-11-21T08:48:38;5.25;;;3.30;;
21420;SDS011;10871;50.144;8.428;2023-11-21T08:51:05;4.18;;;2.90;;
21420;SDS011;10871;50.144;8.428;2023-11-21T08:53:32;3.45;;;2.33;;
21420;SDS011;10871;50.144;8.428;2023-11-21T08:55:59;5.43;;;2.78;;
21420;SDS011;10871;50.144;8.428;2023-11-21T08:58:26;6.30;;;2.80;;
21420;SDS011;10871;50.144;8.428;2023-11-21T09:00:53;9.52;;;3.22;;
21420;SDS011;10871;50.144;8.428;2023-11-21T09:03:19;5.32;;;3.80;;
21420;SDS011;10871;50.144;8.428;2023-11-21T09:05:46;7.35;;;4.22;;
21420;SDS011;10871;50.144;8.428;2023-11-21T09:08:13;6.55;;;4.22;;
21420;SDS011;10871;50.144;8.428;2023-11-21T09:10:40;7.68;;;4.00;;
21420;SDS011;10871;50.144;8.428;2023-11-21T09:13:09;5.75;;;4.07;;
21420;SDS011;10871;50.144;8.428;2023-11-21T09:15:38;7.72;;;3.90;;
21420;SDS011;10871;50.144;8.428;2023-11-21T09:18:04;7.60;;;3.90;;
21420;SDS011;10871;50.144;8.428;2023-11-21T09:20:31;7.07;;;4.20;;
21420;SDS011;10871;50.144;8.428;2023-11-21T09:22:58;6.10;;;3.90;;
21420;SDS011;10871;50.144;8.428;2023-11-21T09:25:25;6.20;;;3.63;;
21420;SDS011;10871;50.144;8.428;2023-11-21T09:27:52;6.38;;;3.67;;
21420;SDS011;10871;50.144;8.428;2023-11-21T09:30:20;6.93;;;4.00;;
21420;SDS011;10871;50.144;8.428;2023-11-21T09:32:46;11.20;;;4.20;;
21420;SDS011;10871;50.144;8.428;2023-11-21T09:35:14;7.00;;;4.20;;
21420;SDS011;10871;50.144;8.428;2023-11-21T09:37:41;5.88;;;3.78;;
21420;SDS011;10871;50.144;8.428;2023-11-21T09:40:09;5.70;;;4.00;;
21420;SDS011;10871;50.144;8.428;2023-11-21T09:42:40;8.18;;;4.47;;
21420;SDS011;10871;50.144;8.428;2023-11-21T09:47:38;8.05;;;4.13;;
21420;SDS011;10871;50.144;8.428;2023-11-21T09:50:05;6.68;;;3.88;;
21420;SDS011;10871;50.144;8.428;2023-11-21T09:52:39;6.18;;;5.00;;
21420;SDS011;10871;50.144;8.428;2023-11-21T09:55:11;6.40;;;4.90;;
21420;SDS011;10871;50.144;8.428;2023-11-21T09:57:42;7.30;;;4.43;;
21420;SDS011;10871;50.144;8.428;2023-11-21T10:00:08;7.45;;;3.58;;
21420;SDS011;10871;50.144;8.428;2023-11-21T10:02:38;8.68;;;3.60;;
21420;SDS011;10871;50.144;8.428;2023-11-21T10:05:07;6.10;;;3.20;;
21420;SDS011;10871;50.144;8.428;2023-11-21T10:07:36;3.97;;;3.25;;
21420;SDS011;10871;50.144;8.428;2023-11-21T10:10:03;5.80;;;3.22;;
21420;SDS011;10871;50.144;8.428;2023-11-21T10:12:30;6.38;;;3.20;;
21420;SDS011;10871;50.144;8.428;2023-11-21T10:14:58;7.60;;;2.70;;
21420;SDS011;10871;50.144;8.428;2023-11-21T10:17:27;4.25;;;2.65;;
21420;SDS011;10871;50.144;8.428;2023-11-21T10:19:57;5.53;;;3.03;;
21420;SDS011;10871;50.144;8.428;2023-11-21T10:22:24;8.57;;;3.35;;
21420;SDS011;10871;50.144;8.428;2023-11-21T10:24:52;5.55;;;3.03;;
21420;SDS011;10871;50.144;8.428;2023-11-21T10:27:20;4.70;;;2.67;;
21420;SDS011;10871;50.144;8.428;2023-11-21T10:29:47;5.88;;;2.95;;
21420;SDS011;10871;50.144;8.428;2023-11-21T10:32:13;4.82;;;2.65;;
21420;SDS011;10871;50.144;8.428;2023-11-21T10:34:40;7.97;;;3.00;;
21420;SDS011;10871;50.144;8.428;2023-11-21T10:37:11;4.15;;;2.45;;
21420;SDS011;10871;50.144;8.428;2023-11-21T10:39:38;6.55;;;3.00;;
21420;SDS011;10871;50.144;8.428;2023-11-21T10:42:07;6.60;;;2.83;;
21420;SDS011;10871;50.144;8.428;2023-11-21T10:44:34;6.32;;;2.55;;
21420;SDS011;10871;50.144;8.428;2023-11-21T10:47:03;5.47;;;2.72;;
21420;SDS011;10871;50.144;8.428;2023-11-21T10:49:31;6.10;;;2.50;;
21420;SDS011;10871;50.144;8.428;2023-11-21T10:51:59;6.18;;;2.72;;
21420;SDS011;10871;50.144;8.428;2023-11-21T10:54:25;6.28;;;2.85;;
21420;SDS011;10871;50.144;8.428;2023-11-21T10:56:58;4.78;;;2.80;;
21420;SDS011;10871;50.144;8.428;2023-11-21T10:59:28;2.72;;;2.28;;
21420;SDS011;10871;50.144;8.428;2023-11-21T11:01:55;7.28;;;2.50;;
21420;SDS011;10871;50.144;8.428;2023-11-21T11:04:24;3.58;;;2.20;;
21420;SDS011;10871;50.144;8.428;2023-11-21T11:06:54;6.93;;;3.50;;
21420;SDS011;10871;50.144;8.428;2023-11-21T11:09:22;5.38;;;2.80;;
21420;SDS011;10871;50.144;8.428;2023-11-21T11:11:50;4.95;;;2.55;;
21420;SDS011;10871;50.144;8.428;2023-11-21T11:14:17;4.30;;;2.53;;
21420;SDS011;10871;50.144;8.428;2023-11-21T11:16:46;4.15;;;2.50;;
21420;SDS011;10871;50.144;8.428;2023-11-21T11:19:13;4.50;;;2.33;;
21420;SDS011;10871;50.144;8.428;2023-11-21T11:24:17;5.43;;;2.60;;
21420;SDS011;10871;50.144;8.428;2023-11-21T11:26:57;5.65;;;2.50;;
21420;SDS011;10871;50.144;8.428;2023-11-21T11:32:09;5.18;;;2.92;;
21420;SDS011;10871;50.144;8.428;2023-11-21T11:34:41;5.07;;;2.90;;
21420;SDS011;10871;50.144;8.428;2023-11-21T11:37:10;6.28;;;2.90;;
21420;SDS011;10871;50.144;8.428;2023-11-21T11:39:42;7.43;;;2.70;;
21420;SDS011;10871;50.144;8.428;2023-11-21T11:42:14;4.35;;;2.85;;
21420;SDS011;10871;50.144;8.428;2023-11-21T11:47:30;5.57;;;3.10;;
21420;SDS011;10871;50.144;8.428;2023-11-21T11:50:10;4.45;;;3.28;;
21420;SDS011;10871;50.144;8.428;2023-11-21T11:52:50;8.00;;;3.20;;
21420;SDS011;10871;50.144;8.428;2023-11-21T11:55:20;4.15;;;2.50;;
21420;SDS011;10871;50.144;8.428;2023-11-21T11:57:49;7.03;;;2.70;;
21420;SDS011;10871;50.144;8.428;2023-11-21T12:00:22;6.72;;;2.40;;
21420;SDS011;10871;50.144;8.428;2023-11-21T12:03:02;5.93;;;2.83;;
21420;SDS011;10871;50.144;8.428;2023-11-21T12:05:33;3.60;;;2.50;;
21420;SDS011;10871;50.144;8.428;2023-11-21T12:08:13;4.60;;;2.77;;
21420;SDS011;10871;50.144;8.428;2023-11-21T12:10:43;5.45;;;2.92;;
21420;SDS011;10871;50.144;8.428;2023-11-21T12:13:10;6.47;;;3.20;;
21420;SDS011;10871;50.144;8.428;2023-11-21T12:15:40;4.00;;;2.88;;
21420;SDS011;10871;50.144;8.428;2023-11-21T12:18:08;7.47;;;3.78;;
21420;SDS011;10871;50.144;8.428;2023-11-21T12:20:37;6.20;;;3.55;;
21420;SDS011;10871;50.144;8.428;2023-11-21T12:23:08;8.65;;;3.08;;
21420;SDS011;10871;50.144;8.428;2023-11-21T12:25:36;5.75;;;3.00;;
21420;SDS011;10871;50.144;8.428;2023-11-21T12:28:09;6.10;;;2.88;;
21420;SDS011;10871;50.144;8.428;2023-11-21T12:30:39;6.70;;;3.30;;
21420;SDS011;10871;50.144;8.428;2023-11-21T12:33:06;6.20;;;3.13;;
21420;SDS011;10871;50.144;8.428;2023-11-21T12:35:37;6.85;;;3.92;;
21420;SDS011;10871;50.144;8.428;2023-11-21T12:38:04;5.40;;;3.53;;
21420;SDS011;10871;50.144;8.428;2023-11-21T12:40:32;5.75;;;3.35;;
21420;SDS011;10871;50.144;8.428;2023-11-21T12:43:01;6.88;;;3.30;;
21420;SDS011;10871;50.144;8.428;2023-11-21T12:45:31;7.57;;;3.80;;
21420;SDS011;10871;50.144;8.428;2023-11-21T12:48:02;6.35;;;3.38;;
21420;SDS011;10871;50.144;8.428;2023-11-21T12:50:36;6.57;;;3.72;;
21420;SDS011;10871;50.144;8.428;2023-11-21T12:53:05;8.63;;;3.95;;
21420;SDS011;10871;50.144;8.428;2023-11-21T12:55:33;5.38;;;3.20;;
21420;SDS011;10871;50.144;8.428;2023-11-21T12:58:06;4.28;;;3.47;;
21420;SDS011;10871;50.144;8.428;2023-11-21T13:00:42;7.25;;;3.70;;
21420;SDS011;10871;50.144;8.428;2023-11-21T13:03:11;5.95;;;3.40;;
21420;SDS011;10871;50.144;8.428;2023-11-21T13:05:47;6.50;;;3.75;;
21420;SDS011;10871;50.144;8.428;2023-11-21T13:08:37;8.13;;;3.58;;
21420;SDS011;10871;50.144;8.428;2023-11-21T13:11:07;8.52;;;3.80;;
21420;SDS011;10871;50.144;8.428;2023-11-21T13:13:36;6.25;;;3.40;;
21420;SDS011;10871;50.144;8.428;2023-11-21T13:16:07;7.03;;;3.67;;
21420;SDS011;10871;50.144;8.428;2023-11-21T13:18:36;7.70;;;3.20;;
21420;SDS011;10871;50.144;8.428;2023-11-21T13:21:09;3.80;;;3.10;;
21420;SDS011;10871;50.144;8.428;2023-11-21T13:23:44;6.55;;;3.40;;
21420;SDS011;10871;50.144;8.428;2023-11-21T13:26:13;7.90;;;3.13;;
21420;SDS011;10871;50.144;8.428;2023-11-21T13:28:42;5.95;;;3.00;;
21420;SDS011;10871;50.144;8.428;2023-11-21T13:31:13;5.63;;;2.60;;
21420;SDS011;10871;50.144;8.428;2023-11-21T13:33:53;5.22;;;2.47;;
21420;SDS011;10871;50.144;8.428;2023-11-21T13:36:30;3.70;;;2.63;;
21420;SDS011;10871;50.144;8.428;2023-11-21T13:38:59;8.50;;;3.47;;
21420;SDS011;10871;50.144;8.428;2023-11-21T13:41:30;5.43;;;2.55;;
21420;SDS011;10871;50.144;8.428;2023-11-21T13:43:58;5.05;;;2.92;;
21420;SDS011;10871;50.144;8.428;2023-11-21T13:46:45;4.10;;;2.72;;
21420;SDS011;10871;50.144;8.428;2023-11-21T13:49:13;5.80;;;2.60;;
21420;SDS011;10871;50.144;8.428;2023-11-21T13:51:41;7.65;;;3.13;;
21420;SDS011;10871;50.144;8.428;2023-11-21T13:54:11;9.63;;;3.28;;
21420;SDS011;10871;50.144;8.428;2023-11-21T13:56:38;5.90;;;3.30;;
21420;SDS011;10871;50.144;8.428;2023-11-21T13:59:07;6.25;;;4.47;;
21420;SDS011;10871;50.144;8.428;2023-11-21T14:01:47;9.52;;;4.65;;
21420;SDS011;10871;50.144;8.428;2023-11-21T14:04:22;9.98;;;4.63;;
21420;SDS011;10871;50.144;8.428;2023-11-21T14:07:07;9.35;;;5.40;;
21420;SDS011;10871;50.144;8.428;2023-11-21T14:09:52;8.73;;;5.80;;
21420;SDS011;10871;50.144;8.428;2023-11-21T14:12:19;14.70;;;6.43;;
21420;SDS011;10871;50.144;8.428;2023-11-21T14:14:46;14.35;;;6.57;;
21420;SDS011;10871;50.144;8.428;2023-11-21T14:17:14;10.18;;;6.57;;
21420;SDS011;10871;50.144;8.428;2023-11-21T14:19:40;12.68;;;6.70;;
21420;SDS011;10871;50.144;8.428;2023-11-21T14:22:10;11.57;;;6.47;;
21420;SDS011;10871;50.144;8.428;2023-11-21T14:24:37;11.35;;;6.57;;
21420;SDS011;10871;50.144;8.428;2023-11-21T14:27:04;12.20;;;6.95;;
21420;SDS011;10871;50.144;8.428;2023-11-21T14:29:31;11.13;;;6.63;;
21420;SDS011;10871;50.144;8.428;2023-11-21T14:32:03;10.18;;;6.90;;
21420;SDS011;10871;50.144;8.428;2023-11-21T14:34:30;8.63;;;6.35;;
21420;SDS011;10871;50.144;8.428;2023-11-21T14:36:57;10.77;;;7.20;;
21420;SDS011;10871;50.144;8.428;2023-11-21T14:39:24;10.18;;;6.78;;
21420;SDS011;10871;50.144;8.428;2023-11-21T14:41:54;16.25;;;7.53;;
21420;SDS011;10871;50.144;8.428;2023-11-21T14:44:25;14.25;;;7.47;;
21420;SDS011;10871;50.144;8.428;2023-11-21T14:46:57;12.85;;;7.50;;
21420;SDS011;10871;50.144;8.428;2023-11-21T14:49:25;11.82;;;6.68;;
21420;SDS011;10871;50.144;8.428;2023-11-21T14:51:55;12.50;;;6.55;;
21420;SDS011;10871;50.144;8.428;2023-11-21T14:54:30;13.88;;;6.85;;
21420;SDS011;10871;50.144;8.428;2023-11-21T14:57:26;12.43;;;7.20;;
21420;SDS011;10871;50.144;8.428;2023-11-21T14:59:53;11.30;;;7.05;;
21420;SDS011;10871;50.144;8.428;2023-11-21T15:02:24;15.10;;;7.55;;
21420;SDS011;10871;50.144;8.428;2023-11-21T15:05:11;31.02;;;7.97;;